Time,TemperatureF,DewpointF,PressureIn,WindDirection,WindDirectionDegrees,WindSpeedMPH,WindSpeedGustMPH,Humidity,HourlyPrecipIn,Conditions,Clouds,dailyrainin,SolarRadiationWatts/m^2,SoftwareType,DateUTC
2013-11-23 00:01:00,48.0,28.0,-100.00,ESE,109,3.0,13.0,45,0.00,,,0.01,0.000000,,2013-11-23 08:01:00,
2013-11-23 00:12:00,48.0,28.0,-100.00,ESE,109,3.0,13.0,45,0.00,,,0.01,0.000000,,2013-11-23 08:12:00,
2013-11-23 00:52:00,49.0,27.0,-100.00,East,101,4.0,16.0,43,0.00,,,0.01,0.000000,,2013-11-23 08:52:00,
2013-11-23 01:02:00,49.0,27.0,-100.00,East,101,4.0,16.0,43,0.00,,,0.01,0.000000,,2013-11-23 09:02:00,
2013-11-23 01:11:00,49.0,27.0,-100.00,East,101,4.0,16.0,43,0.00,,,0.01,0.000000,,2013-11-23 09:11:00,
2013-11-23 01:43:00,49.0,29.0,-100.00,East,96,3.0,14.0,46,0.00,,,0.01,0.000000,,2013-11-23 09:43:00,
2013-11-23 01:54:00,49.0,29.0,-100.00,East,96,3.0,14.0,46,0.00,,,0.01,0.000000,,2013-11-23 09:54:00,
2013-11-23 02:03:00,49.0,29.0,-100.00,East,96,3.0,14.0,46,0.00,,,0.01,0.000000,,2013-11-23 10:03:00,
2013-11-23 02:12:00,49.0,29.0,-100.00,East,96,3.0,14.0,46,0.00,,,0.01,0.000000,,2013-11-23 10:12:00,
2013-11-23 02:42:00,48.0,29.0,-100.00,SE,130,3.0,11.0,48,0.00,,,0.01,0.000000,,2013-11-23 10:42:00,
2013-11-23 02:52:00,48.0,29.0,-100.00,SE,130,3.0,11.0,48,0.00,,,0.01,0.000000,,2013-11-23 10:52:00,
2013-11-23 03:02:00,48.0,29.0,-100.00,SE,130,3.0,11.0,48,0.00,,,0.01,0.000000,,2013-11-23 11:02:00,
2013-11-23 03:12:00,48.0,29.0,-100.00,SE,130,3.0,11.0,48,0.00,,,0.01,0.000000,,2013-11-23 11:12:00,
2013-11-23 03:43:00,49.0,31.0,-100.00,ENE,64,3.0,12.0,49,0.00,,,0.01,0.000000,,2013-11-23 11:43:00,
2013-11-23 03:52:00,49.0,31.0,-100.00,ENE,64,3.0,12.0,49,0.00,,,0.01,0.000000,,2013-11-23 11:52:00,
2013-11-23 04:02:00,49.0,31.0,-100.00,ENE,64,3.0,12.0,49,0.00,,,0.01,0.000000,,2013-11-23 12:02:00,
2013-11-23 04:11:00,49.0,31.0,-100.00,ENE,64,3.0,12.0,49,0.00,,,0.01,0.000000,,2013-11-23 12:11:00,
2013-11-23 04:42:00,47.0,31.0,-100.00,SW,215,2.0,9.0,53,0.00,,,0.01,0.000000,,2013-11-23 12:42:00,
2013-11-23 04:52:00,47.0,31.0,-100.00,SW,215,2.0,9.0,53,0.00,,,0.01,0.000000,,2013-11-23 12:52:00,
2013-11-23 05:01:00,47.0,31.0,-100.00,SW,215,2.0,9.0,53,0.00,,,0.01,0.000000,,2013-11-23 13:01:00,
2013-11-23 05:11:00,47.0,31.0,-100.00,SW,215,2.0,9.0,53,0.00,,,0.01,0.000000,,2013-11-23 13:11:00,
2013-11-23 05:42:00,46.0,34.0,-100.00,SSE,168,2.0,4.0,62,0.00,,,0.01,0.000000,,2013-11-23 13:42:00,
2013-11-23 05:52:00,46.0,34.0,-100.00,SSE,168,2.0,4.0,62,0.00,,,0.01,0.000000,,2013-11-23 13:52:00,
2013-11-23 06:02:00,46.0,34.0,-100.00,SSE,168,2.0,4.0,62,0.00,,,0.01,0.000000,,2013-11-23 14:02:00,
2013-11-23 06:11:00,46.0,34.0,-100.00,SSE,168,2.0,4.0,62,0.00,,,0.01,0.000000,,2013-11-23 14:11:00,
2013-11-23 06:42:00,46.0,32.0,-100.00,SW,225,1.0,5.0,59,0.00,,,0.01,0.000000,,2013-11-23 14:42:00,
2013-11-23 06:52:00,46.0,32.0,-100.00,SW,225,1.0,5.0,59,0.00,,,0.01,0.000000,,2013-11-23 14:52:00,
2013-11-23 07:02:00,46.0,32.0,-100.00,SW,225,1.0,5.0,59,0.00,,,0.01,0.000000,,2013-11-23 15:02:00,
2013-11-23 07:11:00,46.0,32.0,-100.00,SW,225,1.0,5.0,59,0.00,,,0.01,0.000000,,2013-11-23 15:11:00,
2013-11-23 07:43:00,45.0,33.0,-100.00,SE,143,2.0,4.0,63,0.00,,,0.01,5.000000,,2013-11-23 15:43:00,
2013-11-23 07:54:00,45.0,33.0,-100.00,SE,143,2.0,4.0,63,0.00,,,0.01,5.000000,,2013-11-23 15:54:00,
2013-11-23 08:04:00,45.0,33.0,-100.00,SE,143,2.0,4.0,63,0.00,,,0.01,5.000000,,2013-11-23 16:04:00,
2013-11-23 08:13:00,45.0,33.0,-100.00,SE,143,2.0,4.0,63,0.00,,,0.01,5.000000,,2013-11-23 16:13:00,
2013-11-23 08:43:00,47.0,35.0,-100.00,South,179,1.0,3.0,64,0.00,,,0.00,76.000000,,2013-11-23 16:43:00,
2013-11-23 08:53:00,47.0,35.0,-100.00,South,179,1.0,3.0,64,0.00,,,0.00,76.000000,,2013-11-23 16:53:00,
2013-11-23 09:02:00,47.0,35.0,-100.00,South,179,1.0,3.0,64,0.00,,,0.00,76.000000,,2013-11-23 17:02:00,
2013-11-23 09:11:00,47.0,35.0,-100.00,South,179,1.0,3.0,64,0.00,,,0.00,76.000000,,2013-11-23 17:11:00,
2013-11-23 09:42:00,52.0,38.0,-100.00,NNE,16,2.0,5.0,59,0.00,,,0.00,272.000000,,2013-11-23 17:42:00,
2013-11-23 09:52:00,52.0,38.0,-100.00,NNE,16,2.0,5.0,59,0.00,,,0.00,272.000000,,2013-11-23 17:52:00,
2013-11-23 10:01:00,52.0,38.0,-100.00,NNE,16,2.0,5.0,59,0.00,,,0.00,272.000000,,2013-11-23 18:01:00,
2013-11-23 10:12:00,52.0,38.0,-100.00,NNE,16,2.0,5.0,59,0.00,,,0.00,272.000000,,2013-11-23 18:12:00,
2013-11-23 10:42:00,51.0,35.0,-100.00,NNW,336,2.0,7.0,55,0.00,,,0.00,283.000000,,2013-11-23 18:42:00,
2013-11-23 10:52:00,51.0,35.0,-100.00,NNW,336,2.0,7.0,55,0.00,,,0.00,283.000000,,2013-11-23 18:52:00,
2013-11-23 11:01:00,51.0,35.0,-100.00,NNW,336,2.0,7.0,55,0.00,,,0.00,283.000000,,2013-11-23 19:01:00,
2013-11-23 11:11:00,51.0,35.0,-100.00,NNW,336,2.0,7.0,55,0.00,,,0.00,283.000000,,2013-11-23 19:11:00,
2013-11-23 11:42:00,51.0,35.0,-100.00,NW,313,1.0,5.0,54,0.00,,,0.00,199.000000,,2013-11-23 19:42:00,
2013-11-23 11:52:00,51.0,35.0,-100.00,NW,313,1.0,5.0,54,0.00,,,0.00,199.000000,,2013-11-23 19:52:00,
2013-11-23 12:02:00,51.0,35.0,-100.00,NW,313,1.0,5.0,54,0.00,,,0.00,199.000000,,2013-11-23 20:02:00,
2013-11-23 12:11:00,51.0,35.0,-100.00,NW,313,1.0,5.0,54,0.00,,,0.00,199.000000,,2013-11-23 20:11:00,
2013-11-23 12:42:00,52.0,34.0,-100.00,WNW,288,2.0,6.0,51,0.00,,,0.00,237.000000,,2013-11-23 20:42:00,
2013-11-23 12:52:00,52.0,34.0,-100.00,WNW,288,2.0,6.0,51,0.00,,,0.00,237.000000,,2013-11-23 20:52:00,
2013-11-23 13:02:00,52.0,34.0,-100.00,WNW,288,2.0,6.0,51,0.00,,,0.00,237.000000,,2013-11-23 21:02:00,
2013-11-23 13:11:00,52.0,34.0,-100.00,WNW,288,2.0,6.0,51,0.00,,,0.00,237.000000,,2013-11-23 21:11:00,
2013-11-23 13:43:00,55.0,33.0,-100.00,NE,43,1.0,7.0,43,0.00,,,0.00,332.000000,,2013-11-23 21:43:00,
2013-11-23 13:53:00,55.0,33.0,-100.00,NE,43,1.0,7.0,43,0.00,,,0.00,332.000000,,2013-11-23 21:53:00,
2013-11-23 14:03:00,55.0,33.0,-100.00,NE,43,1.0,7.0,43,0.00,,,0.00,332.000000,,2013-11-23 22:03:00,
2013-11-23 14:13:00,55.0,33.0,-100.00,NE,43,1.0,7.0,43,0.00,,,0.00,332.000000,,2013-11-23 22:13:00,
2013-11-23 14:43:00,55.0,35.0,-100.00,South,172,3.0,8.0,47,0.00,,,0.00,245.000000,,2013-11-23 22:43:00,
2013-11-23 14:53:00,55.0,35.0,-100.00,South,172,3.0,8.0,47,0.00,,,0.00,245.000000,,2013-11-23 22:53:00,
2013-11-23 15:02:00,55.0,35.0,-100.00,South,172,3.0,8.0,47,0.00,,,0.00,245.000000,,2013-11-23 23:02:00,
2013-11-23 15:12:00,55.0,35.0,-100.00,South,172,3.0,8.0,47,0.00,,,0.00,245.000000,,2013-11-23 23:12:00,
2013-11-23 15:42:00,54.0,35.0,-100.00,NNW,340,4.0,9.0,48,0.00,,,0.00,172.000000,,2013-11-23 23:42:00,
2013-11-23 15:53:00,54.0,35.0,-100.00,NNW,340,4.0,9.0,48,0.00,,,0.00,172.000000,,2013-11-23 23:53:00,
2013-11-23 16:02:00,54.0,35.0,-100.00,NNW,340,4.0,9.0,48,0.00,,,0.00,172.000000,,2013-11-24 00:02:00,
2013-11-23 16:11:00,54.0,35.0,-100.00,NNW,340,4.0,9.0,48,0.00,,,0.00,172.000000,,2013-11-24 00:11:00,
2013-11-23 16:42:00,49.0,34.0,-100.00,NW,305,2.0,9.0,55,0.00,,,0.00,47.000000,,2013-11-24 00:42:00,
2013-11-23 16:52:00,49.0,34.0,-100.00,NW,305,2.0,9.0,55,0.00,,,0.00,47.000000,,2013-11-24 00:52:00,
2013-11-23 17:01:00,49.0,34.0,-100.00,NW,305,2.0,9.0,55,0.00,,,0.00,47.000000,,2013-11-24 01:01:00,
2013-11-23 17:11:00,49.0,34.0,-100.00,NW,305,2.0,9.0,55,0.00,,,0.00,47.000000,,2013-11-24 01:11:00,
2013-11-23 17:42:00,47.0,36.0,-100.00,SSE,161,3.0,7.0,66,0.00,,,0.00,5.000000,,2013-11-24 01:42:00,
2013-11-23 17:52:00,47.0,36.0,-100.00,SSE,161,3.0,7.0,66,0.00,,,0.00,5.000000,,2013-11-24 01:52:00,
2013-11-23 18:01:00,47.0,36.0,-100.00,SSE,161,3.0,7.0,66,0.00,,,0.00,5.000000,,2013-11-24 02:01:00,
2013-11-23 18:11:00,47.0,36.0,-100.00,SSE,161,3.0,7.0,66,0.00,,,0.00,5.000000,,2013-11-24 02:11:00,
2013-11-23 18:42:00,45.0,36.0,-100.00,SSE,159,4.0,5.0,71,0.00,,,0.00,0.000000,,2013-11-24 02:42:00,
2013-11-23 18:52:00,45.0,36.0,-100.00,SSE,159,4.0,5.0,71,0.00,,,0.00,0.000000,,2013-11-24 02:52:00,
2013-11-23 19:02:00,45.0,36.0,-100.00,SSE,159,4.0,5.0,71,0.00,,,0.00,0.000000,,2013-11-24 03:02:00,
2013-11-23 19:11:00,45.0,36.0,-100.00,SSE,159,4.0,5.0,71,0.00,,,0.00,0.000000,,2013-11-24 03:11:00,
2013-11-23 19:43:00,46.0,36.0,-100.00,ESE,117,0.0,4.0,68,0.00,,,0.00,0.000000,,2013-11-24 03:43:00,
2013-11-23 19:53:00,46.0,36.0,-100.00,ESE,117,0.0,4.0,68,0.00,,,0.00,0.000000,,2013-11-24 03:53:00,
2013-11-23 20:02:00,-999.0,-99.9,-100.00,ESE,117,0.0,4.0,68,0.00,,,0.00,0.000000,,2013-11-24 04:02:00,
2013-11-23 20:13:00,46.0,36.0,-100.00,ESE,117,0.0,4.0,68,0.00,,,0.00,0.000000,,2013-11-24 04:13:00,
2013-11-23 20:43:00,46.0,36.0,-100.00,South,169,1.0,4.0,67,0.00,,,0.00,0.000000,,2013-11-24 04:43:00,
2013-11-23 20:53:00,46.0,36.0,-100.00,South,169,1.0,4.0,67,0.00,,,0.00,0.000000,,2013-11-24 04:53:00,
2013-11-23 21:02:00,46.0,36.0,-100.00,South,169,1.0,4.0,67,0.00,,,0.00,0.000000,,2013-11-24 05:02:00,
2013-11-23 21:12:00,46.0,36.0,-100.00,South,169,1.0,4.0,67,0.00,,,0.00,0.000000,,2013-11-24 05:12:00,
2013-11-23 21:43:00,45.0,37.0,-100.00,SW,224,0.0,3.0,72,0.00,,,0.00,0.000000,,2013-11-24 05:43:00,
2013-11-23 21:53:00,45.0,37.0,-100.00,SW,224,0.0,3.0,72,0.00,,,0.00,0.000000,,2013-11-24 05:53:00,
2013-11-23 22:02:00,45.0,37.0,-100.00,SW,224,0.0,3.0,72,0.00,,,0.00,0.000000,,2013-11-24 06:02:00,
2013-11-23 22:12:00,45.0,37.0,-100.00,SW,224,0.0,3.0,72,0.00,,,0.00,0.000000,,2013-11-24 06:12:00,
2013-11-23 22:42:00,45.0,37.0,-100.00,South,191,0.0,3.0,72,0.00,,,0.00,0.000000,,2013-11-24 06:42:00,
2013-11-23 22:52:00,45.0,37.0,-100.00,South,191,0.0,3.0,72,0.00,,,0.00,0.000000,,2013-11-24 06:52:00,
2013-11-23 23:02:00,45.0,37.0,-100.00,South,191,0.0,3.0,72,0.00,,,0.00,0.000000,,2013-11-24 07:02:00,
2013-11-23 23:11:00,45.0,37.0,-100.00,South,191,0.0,3.0,72,0.00,,,0.00,0.000000,,2013-11-24 07:11:00,
2013-11-23 23:42:00,44.0,37.0,-100.00,East,87,0.0,3.0,75,0.00,,,0.00,0.000000,,2013-11-24 07:42:00,
2013-11-23 23:52:00,44.0,37.0,-100.00,East,87,0.0,3.0,75,0.00,,,0.00,0.000000,,2013-11-24 07:52:00,